Ana Sayfa
METAR-TAF:

METAR-TAF

Havaalanları :

Langlade County Airport

Antigo, Wisconsin, Amerika Birleşik Devletleri

Enlem: 45-09-15N, Boylam: 89-06-39W, yükseklik: 464 m

Güncel hava durumu gözlemi

Rapor saat 19:55 UTC de 28 dakika önce yapıldı.
Rüzgar kuzeydan 11 kt ve 14 kt'a kadar ani rüzgarlar
Sıcaklık 13°C
Nem 47%
Basınç 1019 hPa
Görüş mesafesi: 16.1 km
4900 ft yükseklikte parçalı bulutlu

METAR: KAIG 201955Z AUTO 35011G14KT 10SM SCT049 13/02 A3009 RMK AO2 T01320020

Saat: 15:23 (20:23 UTC)


TAF: eksik

4.000'den fazla havaalanı için hava durumu gözlemleri ve tahminleri (METAR ve TAF raporları).

Kullanılabilir istasyonlar harita üzerinde sarı ve kırmızı noktalarla gösterilir.

İstasyonun adını görmek için fareyi noktanın üzerinde gezdirin.

Sonrasında hava gözlem ve tahminlerini görmek için tıklayın.

Haritayı değiştirmek için: yaklaştırmak için siyah artı işaretli yeşil düğmeye ve uzaklaştırmak için de eksi işaretli düğmeye hızla tıklayın; bitişik haritalar için yeşil okları kullanın.


METAR-TAF: